Time;durP1;ratioP1;P1;durP2;ratioP2;P2;SDS_P1;SDS_P2;PMS_P1;PMS_P2;Temp;Humidity;BMP_temperature;BMP_pressure;BME280_temperature;BME280_humidity;BME280_pressure;Samples;Min_cycle;Max_cycle;Signal;HPM_P1;HPM_P2
2023/09/14 00:01:00;;;;;;;25.15;18.25;;;589.20;2432.00;;;;;;5023751;28;20030;-71
2023/09/14 00:03:25;;;;;;;24.42;17.45;;;589.30;2432.00;;;;;;5028276;28;20022;-71
2023/09/14 00:05:51;;;;;;;25.35;18.50;;;589.40;2432.00;;;;;;5033629;28;20103;-71
2023/09/14 00:08:17;;;;;;;24.27;17.45;;;589.30;2432.00;;;;;;5030601;28;20050;-71
2023/09/14 00:10:43;;;;;;;23.63;17.98;;;589.50;2432.00;;;;;;5013680;28;20473;-70
2023/09/14 00:13:10;;;;;;;23.55;17.58;;;589.60;2432.00;;;;;;5014103;28;20099;-71
2023/09/14 00:15:38;;;;;;;23.60;17.45;;;589.70;2432.00;;;;;;5013775;28;20195;-70
2023/09/14 00:18:05;;;;;;;26.27;17.77;;;589.60;2432.00;;;;;;5013849;28;20398;-72
2023/09/14 00:20:31;;;;;;;24.13;17.58;;;589.50;2432.00;;;;;;5013512;28;20045;-72
2023/09/14 00:22:57;;;;;;;26.58;18.77;;;589.30;2432.00;;;;;;5013733;28;20030;-71
2023/09/14 00:25:24;;;;;;;28.98;19.40;;;589.20;2432.00;;;;;;5013719;28;20492;-71
2023/09/14 00:27:51;;;;;;;25.63;18.50;;;589.00;2432.00;;;;;;5013796;28;20022;-70
2023/09/14 00:30:19;;;;;;;30.38;19.02;;;589.00;2432.00;;;;;;5013623;28;20041;-71
2023/09/14 00:32:47;;;;;;;40.63;21.30;;;589.10;2432.00;;;;;;5013681;28;20026;-71
2023/09/14 00:35:14;;;;;;;32.80;21.10;;;589.20;2432.00;;;;;;5024338;28;20390;-71
2023/09/14 00:37:41;;;;;;;35.75;21.52;;;589.10;2432.00;;;;;;5033014;28;20051;-71
2023/09/14 00:40:10;;;;;;;35.65;21.92;;;589.10;2432.00;;;;;;5033109;28;20022;-71
2023/09/14 00:42:43;;;;;;;38.67;22.42;;;589.10;2432.00;;;;;;5033130;28;20111;-73
2023/09/14 00:45:12;;;;;;;30.58;20.85;;;589.20;2432.00;;;;;;5033065;28;20378;-71
2023/09/14 00:47:41;;;;;;;34.22;20.70;;;589.30;2432.00;;;;;;5033638;28;20013;-70
2023/09/14 00:50:07;;;;;;;34.65;21.75;;;589.30;2432.00;;;;;;5021343;28;20378;-71
2023/09/14 00:52:35;;;;;;;31.50;21.35;;;589.30;2432.00;;;;;;5019667;28;20018;-71
2023/09/14 00:55:04;;;;;;;32.70;20.75;;;589.20;2432.00;;;;;;5032945;28;20392;-71
2023/09/14 00:57:30;;;;;;;27.33;19.85;;;589.20;2432.00;;;;;;5039875;28;20415;-71
2023/09/14 00:59:56;;;;;;;35.00;20.90;;;589.40;2432.00;;;;;;5039495;28;20029;-72
2023/09/14 01:02:22;;;;;;;27.73;20.10;;;589.40;2432.00;;;;;;5039344;28;20029;-71
2023/09/14 01:04:49;;;;;;;35.42;20.30;;;589.30;2432.00;;;;;;5039121;28;20397;-71
2023/09/14 01:07:15;;;;;;;37.70;19.27;;;589.40;2432.00;;;;;;5039428;28;20022;-71
2023/09/14 01:09:41;;;;;;;27.58;17.38;;;589.40;2432.00;;;;;;5039185;28;20080;-71
2023/09/14 01:12:08;;;;;;;33.80;19.95;;;589.20;2432.00;;;;;;5039667;28;20036;-72
2023/09/14 01:15:03;;;;;;;27.40;18.75;;;589.40;2432.00;;;;;;5026004;28;20026;-71
2023/09/14 01:17:43;;;;;;;27.35;18.00;;;589.30;2432.00;;;;;;5031857;28;20041;-71
2023/09/14 01:20:46;;;;;;;35.28;19.02;;;589.40;2432.00;;;;;;5039063;28;20068;-72
2023/09/14 01:23:21;;;;;;;26.00;18.52;;;589.40;2432.00;;;;;;5039399;28;20033;-71
2023/09/14 01:25:49;;;;;;;26.75;16.70;;;589.40;2432.00;;;;;;5039124;28;20033;-71
2023/09/14 01:28:15;;;;;;;27.00;17.42;;;589.50;2432.00;;;;;;5039154;28;20021;-71
2023/09/14 01:30:44;;;;;;;31.58;18.65;;;589.40;2432.00;;;;;;5039157;28;20025;-72
2023/09/14 01:33:14;;;;;;;27.75;17.98;;;589.40;2432.00;;;;;;5039412;28;20115;-71
2023/09/14 01:36:08;;;;;;;23.45;17.27;;;589.40;2432.00;;;;;;5038681;28;20025;-71
2023/09/14 01:38:35;;;;;;;27.35;18.48;;;589.40;2432.00;;;;;;5039276;28;20025;-70
2023/09/14 01:41:02;;;;;;;27.77;19.05;;;589.20;2432.00;;;;;;5038887;28;20049;-71
2023/09/14 01:43:30;;;;;;;25.42;17.15;;;589.20;2432.00;;;;;;5039186;28;20025;-71
2023/09/14 01:45:56;;;;;;;28.00;19.50;;;589.20;2432.00;;;;;;5032794;28;20038;-71
2023/09/14 01:48:22;;;;;;;27.33;17.40;;;589.40;2432.00;;;;;;5019761;28;20489;-72
2023/09/14 01:50:49;;;;;;;28.13;17.30;;;589.40;2432.00;;;;;;5025887;28;20025;-71
2023/09/14 01:53:15;;;;;;;26.55;17.02;;;589.50;2432.00;;;;;;5038863;28;20026;-72
2023/09/14 01:55:41;;;;;;;31.58;17.10;;;589.50;2432.00;;;;;;5039012;28;20045;-71
2023/09/14 01:58:06;;;;;;;30.25;18.95;;;589.50;2432.00;;;;;;5038682;28;20076;-71
2023/09/14 02:00:32;;;;;;;27.48;17.77;;;589.60;2432.00;;;;;;5035821;28;20076;-71
2023/09/14 02:02:58;;;;;;;32.30;18.02;;;589.70;2432.00;;;;;;5035685;28;20087;-71
2023/09/14 02:05:24;;;;;;;23.80;16.48;;;589.70;2432.00;;;;;;5035644;28;20061;-71
2023/09/14 02:07:50;;;;;;;31.10;17.30;;;589.50;2432.00;;;;;;5035948;28;20060;-71
2023/09/14 02:10:16;;;;;;;24.88;16.73;;;589.60;2432.00;;;;;;5035314;28;20037;-71
2023/09/14 02:12:42;;;;;;;30.17;17.33;;;589.50;2432.00;;;;;;5035901;28;20462;-71
2023/09/14 02:15:11;;;;;;;35.72;17.85;;;589.50;2432.00;;;;;;5035236;28;20033;-71
2023/09/14 02:17:37;;;;;;;22.90;17.33;;;589.50;2432.00;;;;;;5035539;28;20044;-71
2023/09/14 02:20:08;;;;;;;31.52;17.30;;;589.60;2432.00;;;;;;5035122;28;20048;-71
2023/09/14 02:22:34;;;;;;;29.90;17.30;;;589.70;2432.00;;;;;;5035513;28;20025;-71
2023/09/14 02:25:00;;;;;;;21.45;17.13;;;589.70;2432.00;;;;;;5035422;28;20381;-71
2023/09/14 02:27:26;;;;;;;28.00;17.70;;;589.70;2432.00;;;;;;5034956;28;20097;-71
2023/09/14 02:29:55;;;;;;;30.38;17.48;;;589.70;2432.00;;;;;;5035371;28;20029;-71
2023/09/14 02:32:21;;;;;;;26.02;17.77;;;589.70;2432.00;;;;;;5035137;28;20032;-71
2023/09/14 02:34:48;;;;;;;24.75;17.13;;;589.70;2432.00;;;;;;5035326;28;20120;-71
2023/09/14 02:37:14;;;;;;;25.48;16.92;;;589.60;2432.00;;;;;;5035083;28;20025;-71
2023/09/14 02:39:40;;;;;;;26.27;17.27;;;589.70;2432.00;;;;;;5035231;28;20036;-71
2023/09/14 02:42:06;;;;;;;24.95;16.10;;;589.60;2432.00;;;;;;5035043;28;20022;-70
2023/09/14 02:44:32;;;;;;;27.08;18.38;;;589.70;2432.00;;;;;;5035114;28;20489;-71
2023/09/14 02:46:58;;;;;;;26.65;16.50;;;589.70;2432.00;;;;;;5034580;28;20570;-71
2023/09/14 02:49:24;;;;;;;26.42;16.77;;;589.70;2432.00;;;;;;5034819;28;20045;-72
2023/09/14 02:51:51;;;;;;;23.00;16.38;;;589.50;2432.00;;;;;;5034917;28;20026;-70
2023/09/14 02:54:18;;;;;;;32.38;17.73;;;589.60;2432.00;;;;;;5035124;28;20084;-71
2023/09/14 02:56:43;;;;;;;27.42;17.02;;;589.50;2432.00;;;;;;5034549;28;20049;-72
2023/09/14 02:59:09;;;;;;;29.58;18.00;;;589.60;2432.00;;;;;;5034770;28;20363;-71
2023/09/14 03:01:35;;;;;;;30.45;19.25;;;589.70;2432.00;;;;;;5034647;28;20465;-70
2023/09/14 03:04:01;;;;;;;26.27;16.92;;;589.70;2432.00;;;;;;5034569;28;20033;-71
2023/09/14 03:06:27;;;;;;;23.77;14.90;;;589.70;2432.00;;;;;;5034664;28;20030;-71
2023/09/14 03:08:52;;;;;;;25.63;16.52;;;589.70;2432.00;;;;;;5034682;28;20017;-71
2023/09/14 03:11:18;;;;;;;26.25;15.93;;;589.70;2432.00;;;;;;5034157;28;20034;-71
2023/09/14 03:13:44;;;;;;;22.63;16.20;;;589.70;2432.00;;;;;;5034414;28;20022;-71
2023/09/14 03:16:10;;;;;;;22.73;15.05;;;589.70;2432.00;;;;;;5034296;28;20033;-71
2023/09/14 03:18:35;;;;;;;20.23;14.82;;;614.40;2432.00;;;;;;5034420;28;20025;-71
2023/09/14 03:21:01;;;;;;;22.65;13.70;;;614.40;2432.00;;;;;;5033961;28;20501;-71
2023/09/14 03:23:27;;;;;;;17.13;12.63;;;614.60;2432.00;;;;;;5034470;28;20029;-72
2023/09/14 03:25:55;;;;;;;19.77;13.43;;;614.60;2432.00;;;;;;5033816;28;20388;-71
2023/09/14 03:28:21;;;;;;;17.52;12.35;;;614.70;2432.00;;;;;;5034478;28;20037;-71
2023/09/14 03:30:46;;;;;;;16.13;11.80;;;614.60;2432.00;;;;;;5033908;28;20025;-71
2023/09/14 03:33:12;;;;;;;18.52;12.45;;;614.60;2432.00;;;;;;5034163;28;20079;-71
2023/09/14 03:35:40;;;;;;;18.00;12.35;;;614.60;2432.00;;;;;;5034226;28;20021;-71
2023/09/14 03:38:05;;;;;;;19.05;12.57;;;614.60;2432.00;;;;;;5033909;28;20033;-71
2023/09/14 03:40:31;;;;;;;21.35;11.77;;;614.70;2432.00;;;;;;5034355;28;20079;-71
2023/09/14 03:42:57;;;;;;;18.73;11.18;;;614.70;2432.00;;;;;;5033980;28;20087;-71
2023/09/14 03:45:22;;;;;;;14.18;11.35;;;614.80;2432.00;;;;;;5033951;28;20104;-71
2023/09/14 03:47:50;;;;;;;13.30;10.75;;;614.80;2432.00;;;;;;5033736;28;20361;-71
2023/09/14 03:50:16;;;;;;;17.55;10.65;;;614.80;2432.00;;;;;;5032163;28;20033;-71
2023/09/14 03:52:42;;;;;;;16.33;11.38;;;614.80;2432.00;;;;;;5022322;28;20113;-71
2023/09/14 03:55:08;;;;;;;15.68;10.70;;;614.80;2432.00;;;;;;5033267;28;20350;-71
2023/09/14 03:57:34;;;;;;;20.90;11.68;;;614.90;2432.00;;;;;;5033845;28;20131;-71
2023/09/14 04:00:00;;;;;;;16.70;10.88;;;614.90;2432.00;;;;;;5033691;28;20033;-71
2023/09/14 04:02:26;;;;;;;16.70;11.20;;;614.90;2432.00;;;;;;5025668;28;20520;-71
2023/09/14 04:04:51;;;;;;;14.88;10.95;;;615.00;2432.00;;;;;;5028453;28;20041;-71
2023/09/14 04:07:18;;;;;;;14.50;12.10;;;614.90;2432.00;;;;;;5033596;28;20163;-70
2023/09/14 04:09:44;;;;;;;13.48;10.70;;;614.90;2432.00;;;;;;5033574;28;20025;-71
2023/09/14 04:12:11;;;;;;;12.52;10.52;;;615.00;2432.00;;;;;;5032993;28;20478;-71
2023/09/14 04:14:36;;;;;;;12.90;10.45;;;615.10;2432.00;;;;;;5033056;28;20468;-71
2023/09/14 04:17:02;;;;;;;15.80;11.07;;;615.10;2432.00;;;;;;5033175;28;20039;-71
2023/09/14 04:19:29;;;;;;;12.52;10.73;;;615.20;2432.00;;;;;;5033092;28;20038;-71
2023/09/14 04:21:55;;;;;;;16.52;11.98;;;615.20;2432.00;;;;;;5033224;28;20025;-71
2023/09/14 04:24:21;;;;;;;13.77;10.48;;;615.30;2432.00;;;;;;5032785;28;20025;-71
2023/09/14 04:26:47;;;;;;;13.57;9.77;;;615.30;2432.00;;;;;;5033267;28;20031;-71
2023/09/14 04:29:14;;;;;;;14.70;11.40;;;615.20;2432.00;;;;;;5031399;28;20060;-71
2023/09/14 04:31:43;;;;;;;14.13;9.85;;;615.20;2432.00;;;;;;5022085;28;20411;-71
2023/09/14 04:34:09;;;;;;;15.55;10.68;;;615.30;2432.00;;;;;;5019806;28;20029;-72
2023/09/14 04:36:37;;;;;;;14.02;10.50;;;615.30;2432.00;;;;;;5033374;28;20029;-71
2023/09/14 04:39:03;;;;;;;11.85;10.30;;;615.30;2432.00;;;;;;5032892;28;20539;-71
2023/09/14 04:41:30;;;;;;;14.07;10.65;;;615.30;2432.00;;;;;;5033259;28;20037;-71
2023/09/14 04:43:56;;;;;;;14.27;11.05;;;615.30;2432.00;;;;;;5032806;28;20049;-71
2023/09/14 04:46:22;;;;;;;13.18;10.40;;;615.30;2432.00;;;;;;5033047;28;20029;-71
2023/09/14 04:48:49;;;;;;;15.80;11.18;;;615.30;2432.00;;;;;;5032812;28;20029;-70
2023/09/14 04:51:15;;;;;;;16.85;11.43;;;615.20;2432.00;;;;;;5032928;28;20030;-71
2023/09/14 04:53:40;;;;;;;16.42;11.85;;;615.20;2432.00;;;;;;5024415;28;20508;-70
2023/09/14 04:56:07;;;;;;;15.75;10.52;;;615.10;2432.00;;;;;;5024071;28;20030;-71
2023/09/14 04:58:33;;;;;;;19.45;11.20;;;615.00;2432.00;;;;;;5022361;28;20100;-71
2023/09/14 05:00:59;;;;;;;13.77;12.18;;;615.00;2432.00;;;;;;5026431;28;20093;-72
2023/09/14 05:03:24;;;;;;;16.83;12.13;;;614.90;2432.00;;;;;;5021969;28;20018;-72
2023/09/14 05:05:52;;;;;;;18.55;11.88;;;615.00;2432.00;;;;;;5019986;28;20484;-73
2023/09/14 05:08:18;;;;;;;14.85;11.50;;;615.00;2432.00;;;;;;5019760;28;20018;-72
2023/09/14 05:10:44;;;;;;;17.35;11.40;;;614.90;2432.00;;;;;;5025747;28;20193;-72
2023/09/14 05:13:09;;;;;;;16.17;12.07;;;615.00;2432.00;;;;;;5026366;28;20179;-73
2023/09/14 05:15:36;;;;;;;14.75;12.15;;;615.00;2432.00;;;;;;5022188;28;20026;-73
2023/09/14 05:18:02;;;;;;;16.67;12.70;;;615.00;2432.00;;;;;;5021514;28;20022;-74
2023/09/14 05:20:28;;;;;;;13.90;11.73;;;615.10;2432.00;;;;;;5022126;28;20136;-74
2023/09/14 05:22:53;;;;;;;19.08;10.98;;;615.10;2432.00;;;;;;5022851;28;20107;-74
2023/09/14 05:25:20;;;;;;;16.13;12.50;;;615.10;2432.00;;;;;;5022030;28;20502;-74
2023/09/14 05:27:46;;;;;;;19.38;11.90;;;615.10;2432.00;;;;;;5025565;28;20072;-72
2023/09/14 05:30:11;;;;;;;21.92;12.00;;;615.20;2432.00;;;;;;5016904;28;20046;-74
2023/09/14 05:32:42;;;;;;;15.07;11.73;;;615.20;2432.00;;;;;;5023567;28;20021;-73
2023/09/14 05:35:08;;;;;;;16.98;11.63;;;615.30;2432.00;;;;;;5025049;28;20026;-73
2023/09/14 05:37:34;;;;;;;12.93;11.07;;;615.30;2432.00;;;;;;5029757;28;20048;-72
2023/09/14 05:40:00;;;;;;;18.30;11.85;;;615.30;2432.00;;;;;;5028740;28;20073;-73
2023/09/14 05:42:25;;;;;;;16.10;11.00;;;640.10;2432.00;;;;;;5018914;28;20081;-73
2023/09/14 05:44:51;;;;;;;18.30;12.57;;;640.10;2432.00;;;;;;5032936;28;20039;-74
2023/09/14 05:47:17;;;;;;;13.27;11.55;;;640.10;2432.00;;;;;;5028670;28;20026;-76
2023/09/14 05:49:44;;;;;;;15.15;11.40;;;615.30;2432.00;;;;;;5029016;28;20084;-75
2023/09/14 05:52:09;;;;;;;18.38;10.90;;;640.20;2432.00;;;;;;5019586;28;20057;-74
2023/09/14 05:54:36;;;;;;;13.75;10.25;;;640.30;2432.00;;;;;;5027034;28;20457;-74
2023/09/14 05:57:03;;;;;;;18.88;12.20;;;640.20;2432.00;;;;;;5029625;28;20033;-75
2023/09/14 05:59:28;;;;;;;19.52;11.27;;;640.40;2432.00;;;;;;5021230;28;20021;-75
2023/09/14 06:01:55;;;;;;;13.40;10.70;;;640.50;2432.00;;;;;;5029508;28;20044;-74
2023/09/14 06:04:20;;;;;;;12.02;9.75;;;640.50;2432.00;;;;;;5023890;28;20025;-75
2023/09/14 06:06:46;;;;;;;17.17;10.85;;;640.50;2432.00;;;;;;5031560;28;20029;-74
2023/09/14 06:09:12;;;;;;;15.15;10.02;;;640.60;2432.00;;;;;;5036008;28;20029;-74
2023/09/14 06:11:38;;;;;;;14.25;10.38;;;640.60;2432.00;;;;;;5024080;28;20034;-75
2023/09/14 06:14:03;;;;;;;14.88;10.70;;;640.60;2432.00;;;;;;5032762;28;20033;-74
2023/09/14 06:16:29;;;;;;;15.32;11.25;;;640.60;2432.00;;;;;;5035716;28;20025;-75
2023/09/14 06:18:55;;;;;;;16.02;10.48;;;640.60;2432.00;;;;;;5034954;28;20507;-74
2023/09/14 06:21:21;;;;;;;15.02;10.05;;;640.60;2432.00;;;;;;5035434;28;20045;-75
2023/09/14 06:23:46;;;;;;;13.32;10.45;;;640.60;2432.00;;;;;;5035305;28;20091;-74
2023/09/14 06:26:13;;;;;;;12.68;10.70;;;640.60;2432.00;;;;;;5026657;28;20037;-74
2023/09/14 06:28:39;;;;;;;20.85;11.35;;;640.70;2432.00;;;;;;5029355;28;20022;-74
2023/09/14 06:31:04;;;;;;;18.67;13.05;;;640.70;2432.00;;;;;;5035337;28;20047;-74
2023/09/14 06:33:30;;;;;;;22.98;13.15;;;640.90;2432.00;;;;;;5035421;28;20092;-74
2023/09/14 06:35:56;;;;;;;21.85;12.55;;;665.70;2432.00;;;;;;5035361;28;20112;-75
2023/09/14 06:38:21;;;;;;;18.15;12.52;;;665.70;2432.00;;;;;;5035479;28;20171;-75
2023/09/14 06:40:47;;;;;;;13.73;10.27;;;665.80;2432.00;;;;;;5035097;28;20022;-74
2023/09/14 06:43:13;;;;;;;27.40;17.30;;;665.80;2432.00;;;;;;5035203;28;20026;-74
2023/09/14 06:45:39;;;;;;;72.30;45.00;;;665.90;2432.00;;;;;;5034541;28;20469;-74
2023/09/14 06:48:05;;;;;;;42.70;27.23;;;666.00;2432.00;;;;;;5035184;28;20028;-74
2023/09/14 06:50:31;;;;;;;48.10;29.42;;;665.90;2432.00;;;;;;5035003;28;20024;-75
2023/09/14 06:52:57;;;;;;;30.58;21.48;;;666.00;2432.00;;;;;;5024377;28;20030;-75
2023/09/14 06:55:23;;;;;;;46.35;31.05;;;666.10;2432.00;;;;;;5032362;28;20032;-74
2023/09/14 06:57:48;;;;;;;22.33;15.70;;;666.10;2432.00;;;;;;5034968;28;20103;-75
2023/09/14 07:00:15;;;;;;;21.35;15.95;;;666.10;2432.00;;;;;;5034728;28;20021;-75
2023/09/14 07:02:41;;;;;;;13.65;10.32;;;666.20;2432.00;;;;;;5035018;28;20027;-74
2023/09/14 07:05:10;;;;;;;16.15;10.52;;;666.20;2432.00;;;;;;5034446;28;20432;-75
2023/09/14 07:07:36;;;;;;;13.13;11.43;;;666.20;2432.00;;;;;;5034571;28;20021;-75
2023/09/14 07:10:02;;;;;;;14.43;11.82;;;666.10;2432.00;;;;;;5034655;28;20030;-75
2023/09/14 07:12:28;;;;;;;40.83;30.73;;;666.20;2432.00;;;;;;5034776;28;20072;-74
2023/09/14 07:14:54;;;;;;;16.90;15.00;;;666.20;2432.00;;;;;;5034561;28;20021;-74
2023/09/14 07:17:19;;;;;;;23.63;17.98;;;666.30;2432.00;;;;;;5034711;28;20033;-74
2023/09/14 07:19:45;;;;;;;22.83;19.10;;;666.40;2432.00;;;;;;5033753;28;20041;-74
2023/09/14 07:22:10;;;;;;;34.45;22.08;;;666.50;2432.00;;;;;;5033171;28;20428;-74
2023/09/14 07:24:36;;;;;;;64.70;41.05;;;691.20;2432.00;;;;;;5024674;28;20030;-74
2023/09/14 07:27:02;;;;;;;21.63;16.73;;;691.20;2432.00;;;;;;5020489;28;20033;-74
2023/09/14 07:29:28;;;;;;;24.25;14.43;;;691.30;2432.00;;;;;;5027069;28;20044;-74
2023/09/14 07:31:55;;;;;;;16.77;11.88;;;691.20;2432.00;;;;;;5025478;28;20053;-74
2023/09/14 07:34:20;;;;;;;22.17;17.58;;;691.20;2432.00;;;;;;5023923;28;20073;-74
2023/09/14 07:36:46;;;;;;;35.30;26.48;;;691.20;2432.00;;;;;;5026584;28;20485;-74
2023/09/14 07:39:12;;;;;;;22.13;15.65;;;691.20;2432.00;;;;;;5005010;28;20482;-74
2023/09/14 07:41:37;;;;;;;19.45;12.38;;;691.20;2432.00;;;;;;5033574;28;20461;-74
2023/09/14 07:44:03;;;;;;;17.65;12.02;;;691.20;2432.00;;;;;;5024051;28;20025;-74
2023/09/14 07:46:31;;;;;;;15.85;12.25;;;691.30;2432.00;;;;;;5027803;28;20499;-74
2023/09/14 07:48:57;;;;;;;20.67;13.40;;;691.30;2432.00;;;;;;5022613;28;20017;-74
2023/09/14 07:51:23;;;;;;;15.05;11.00;;;691.30;2432.00;;;;;;5029660;28;20404;-74
2023/09/14 07:53:48;;;;;;;16.15;10.82;;;691.30;2432.00;;;;;;5020829;28;20014;-74
2023/09/14 07:56:14;;;;;;;12.25;10.90;;;691.40;2432.00;;;;;;5025672;28;20056;-74
2023/09/14 07:58:41;;;;;;;14.88;9.75;;;691.70;2432.00;;;;;;5023571;28;20080;-74
2023/09/14 08:01:07;;;;;;;11.50;10.30;;;716.90;2432.00;;;;;;5021031;28;20032;-74
2023/09/14 08:03:33;;;;;;;17.35;10.73;;;717.40;2432.00;;;;;;5021652;28;20021;-74
2023/09/14 08:05:58;;;;;;;14.55;9.77;;;742.50;2406.40;;;;;;5021539;28;20045;-74
2023/09/14 08:08:24;;;;;;;16.88;10.93;;;742.40;2406.40;;;;;;5022701;28;20030;-74
2023/09/14 08:10:51;;;;;;;14.00;10.75;;;742.40;2380.80;;;;;;5015458;28;20121;-74
2023/09/14 08:13:18;;;;;;;19.08;12.90;;;717.70;2380.80;;;;;;5027404;28;20063;-74
2023/09/14 08:15:43;;;;;;;14.98;11.48;;;742.40;2380.80;;;;;;5022470;28;20078;-74
2023/09/14 08:18:10;;;;;;;12.02;9.68;;;;;;;;;;5019909;28;20101;-74
2023/09/14 08:20:39;;;;;;;17.48;12.05;;;;;;;;;;5026454;28;20057;-74
2023/09/14 08:23:05;;;;;;;13.77;10.27;;;768.30;2176.00;;;;;;5031637;28;20033;-74
2023/09/14 08:25:31;;;;;;;22.80;16.33;;;768.70;2124.80;;;;;;5023542;28;20029;-74
2023/09/14 08:27:56;;;;;;;14.45;10.82;;;768.70;2073.60;;;;;;5021242;28;20021;-75
2023/09/14 08:30:25;;;;;;;18.08;10.88;;;768.50;2048.00;;;;;;5018476;28;20470;-74
2023/09/14 08:32:51;;;;;;;15.75;9.93;;;768.50;2099.20;;;;;;5021647;28;20076;-75
2023/09/14 08:35:24;;;;;;;13.68;10.60;;;768.70;2073.60;;;;;;5021812;28;20031;-74
2023/09/14 08:37:53;;;;;;;11.57;9.90;;;768.90;1996.80;;;;;;5026182;28;20018;-74
2023/09/14 08:40:19;;;;;;;11.68;10.48;;;768.90;1971.20;;;;;;5028006;28;20025;-75
2023/09/14 08:42:53;;;;;;;15.35;9.73;;;793.60;1996.80;;;;;;5026822;28;20080;-75
2023/09/14 08:45:24;;;;;;;12.45;8.55;;;794.00;1971.20;;;;;;5024796;28;20029;-78
2023/09/14 08:47:51;;;;;;;12.70;9.68;;;794.20;1920.00;;;;;;5020049;28;20017;-76
2023/09/14 08:50:23;;;;;;;9.68;8.48;;;794.20;1894.40;;;;;;5028701;28;20033;-75
2023/09/14 08:52:50;;;;;;;10.75;9.13;;;794.50;1894.40;;;;;;5026345;28;20076;-76
2023/09/14 08:55:20;;;;;;;10.50;8.45;;;819.30;1868.80;;;;;;5027483;28;20049;-76
2023/09/14 08:57:47;;;;;;;14.85;8.88;;;819.30;1817.60;;;;;;5024730;28;20013;-75
2023/09/14 09:00:15;;;;;;;10.20;8.48;;;819.30;1817.60;;;;;;5023616;28;20392;-75
2023/09/14 09:02:52;;;;;;;13.32;9.07;;;794.50;1817.60;;;;;;5015709;28;20018;-74
2023/09/14 09:05:19;;;;;;;9.23;7.85;;;794.50;1843.20;;;;;;5024052;28;20046;-75
2023/09/14 09:07:47;;;;;;;12.43;8.95;;;819.60;1766.40;;;;;;5022591;28;20026;-75
2023/09/14 09:10:32;;;;;;;11.75;7.40;;;819.80;1740.80;;;;;;5025199;28;20481;-75
2023/09/14 09:13:02;;;;;;;13.07;8.73;;;819.80;1715.20;;;;;;5026140;28;20037;-73
2023/09/14 09:15:29;;;;;;;11.50;7.38;;;820.10;1689.60;;;;;;5026868;28;20018;-74
2023/09/14 09:18:03;;;;;;;13.05;8.13;;;844.80;1664.00;;;;;;5026034;28;20533;-74
2023/09/14 09:20:29;;;;;;;12.15;7.78;;;844.80;1689.60;;;;;;5026894;28;20054;-73
2023/09/14 09:22:59;;;;;;;12.98;7.85;;;845.10;1664.00;;;;;;5026909;28;20593;-74
2023/09/14 09:25:26;;;;;;;13.57;7.72;;;845.60;1664.00;;;;;;5026762;28;20128;-74
2023/09/14 09:27:59;;;;;;;13.70;7.53;;;845.70;1612.80;;;;;;5023848;28;20014;-75
2023/09/14 09:30:32;;;;;;;14.13;7.60;;;845.30;1587.20;;;;;;5029777;28;20473;-74
2023/09/14 09:32:58;;;;;;;15.02;8.65;;;844.90;1638.40;;;;;;5029581;28;20021;-74
2023/09/14 09:35:26;;;;;;;15.32;7.90;;;844.80;1638.40;;;;;;5025822;28;20079;-74
2023/09/14 09:37:54;;;;;;;15.50;8.07;;;820.10;1664.00;;;;;;5026390;28;20025;-73
2023/09/14 09:40:22;;;;;;;13.18;8.85;;;819.70;1664.00;;;;;;5026814;28;20033;-75
2023/09/14 09:42:48;;;;;;;12.63;9.20;;;819.50;1689.60;;;;;;5030238;28;20097;-74
2023/09/14 09:45:14;;;;;;;13.40;8.27;;;794.50;1715.20;;;;;;5026351;28;20042;-73
2023/09/14 09:47:41;;;;;;;11.85;8.63;;;794.40;1740.80;;;;;;5023487;28;20025;-75
2023/09/14 09:50:09;;;;;;;14.95;9.15;;;794.20;1766.40;;;;;;5026312;28;20033;-74
2023/09/14 09:52:35;;;;;;;10.50;8.13;;;794.50;1740.80;;;;;;5024933;28;20041;-73
2023/09/14 09:55:02;;;;;;;12.95;8.50;;;819.80;1715.20;;;;;;5023492;28;20034;-75
2023/09/14 09:57:35;;;;;;;17.85;12.43;;;844.90;1689.60;;;;;;5026340;28;20469;-73
2023/09/14 10:00:14;;;;;;;14.35;11.05;;;819.80;1689.60;;;;;;5029761;28;20034;-74
2023/09/14 10:02:41;;;;;;;11.55;9.88;;;819.80;1689.60;;;;;;5025336;28;20108;-72
2023/09/14 10:05:10;;;;;;;14.20;9.32;;;819.80;1689.60;;;;;;5028667;28;20037;-73
2023/09/14 10:07:40;;;;;;;12.00;9.18;;;819.80;1689.60;;;;;;5025282;28;20053;-73
2023/09/14 10:10:08;;;;;;;13.90;11.88;;;819.70;1715.20;;;;;;5024361;28;20076;-73
2023/09/14 10:12:39;;;;;;;11.35;9.07;;;819.80;1689.60;;;;;;5025273;28;20017;-72
2023/09/14 10:15:06;;;;;;;14.65;9.65;;;819.80;1689.60;;;;;;5023447;28;20026;-72
2023/09/14 10:17:32;;;;;;;17.50;13.15;;;819.80;1715.20;;;;;;5032001;28;20032;-73
2023/09/14 10:20:06;;;;;;;15.10;11.10;;;844.80;1715.20;;;;;;5027828;28;20045;-72
2023/09/14 10:22:32;;;;;;;17.92;11.25;;;845.10;1689.60;;;;;;5023848;28;20025;-73
2023/09/14 10:24:58;;;;;;;15.45;10.23;;;845.20;1664.00;;;;;;5020450;28;20037;-72
2023/09/14 10:27:29;;;;;;;17.38;9.85;;;845.50;1638.40;;;;;;5024888;28;20034;-73
2023/09/14 10:29:57;;;;;;;14.88;10.02;;;845.30;1638.40;;;;;;5027343;28;20018;-72
2023/09/14 10:32:25;;;;;;;11.43;9.35;;;844.80;1664.00;;;;;;5024836;28;20032;-73
2023/09/14 10:34:52;;;;;;;15.18;9.95;;;819.60;1689.60;;;;;;5028844;28;20022;-73
2023/09/14 10:37:21;;;;;;;13.60;8.55;;;819.80;1689.60;;;;;;5026783;28;20029;-73
2023/09/14 10:39:47;;;;;;;11.10;8.88;;;845.00;1638.40;;;;;;5024451;28;20024;-74
2023/09/14 10:42:13;;;;;;;15.45;8.38;;;845.00;1664.00;;;;;;5024850;28;20052;-72
2023/09/14 10:44:40;;;;;;;14.50;9.10;;;844.80;1664.00;;;;;;5024721;28;20033;-74
2023/09/14 10:47:08;;;;;;;11.80;8.57;;;845.10;1638.40;;;;;;5026059;28;20053;-74
2023/09/14 10:49:35;;;;;;;15.02;9.93;;;845.50;1612.80;;;;;;5022613;28;20030;-73
2023/09/14 10:52:02;;;;;;;36.10;21.40;;;845.50;1612.80;;;;;;5025613;28;20018;-75
2023/09/14 10:54:30;;;;;;;74.07;52.10;;;870.50;1587.20;;;;;;5028742;28;20101;-73
2023/09/14 10:57:13;;;;;;;13.40;8.07;;;870.70;1561.60;;;;;;5022339;28;20037;-74
2023/09/14 10:59:53;;;;;;;39.97;27.73;;;845.60;1561.60;;;;;;5025753;28;20028;-73
2023/09/14 11:02:37;;;;;;;88.47;51.60;;;845.20;1561.60;;;;;;5025726;28;20448;-73
2023/09/14 11:05:17;;;;;;;40.97;26.63;;;845.20;1587.20;;;;;;5022671;28;20429;-73
2023/09/14 11:07:47;;;;;;;21.75;10.10;;;845.70;1587.20;;;;;;5024787;28;20452;-73
2023/09/14 11:10:17;;;;;;;24.75;11.73;;;870.60;1561.60;;;;;;5024131;28;20057;-73
2023/09/14 11:12:44;;;;;;;13.77;8.63;;;870.80;1561.60;;;;;;5022765;28;20493;-73
2023/09/14 11:15:20;;;;;;;16.40;10.07;;;870.70;1587.20;;;;;;5021858;28;20044;-73
2023/09/14 11:17:54;;;;;;;16.83;11.93;;;870.90;1561.60;;;;;;5024470;28;20020;-74
2023/09/14 11:20:19;;;;;;;22.10;14.95;;;870.90;1536.00;;;;;;5023642;28;20049;-73
2023/09/14 11:22:46;;;;;;;17.15;10.90;;;870.90;1536.00;;;;;;5026971;28;20026;-73
2023/09/14 11:25:29;;;;;;;16.77;11.55;;;870.90;1536.00;;;;;;5024651;28;20112;-73
2023/09/14 11:27:58;;;;;;;13.60;9.38;;;870.70;1536.00;;;;;;5027160;28;20053;-73
2023/09/14 11:30:24;;;;;;;17.17;9.75;;;870.70;1536.00;;;;;;5029081;28;20026;-73
2023/09/14 11:32:54;;;;;;;22.60;14.63;;;870.90;1561.60;;;;;;5021094;28;20022;-73
2023/09/14 11:35:48;;;;;;;15.38;11.50;;;871.10;1561.60;;;;;;5025469;28;20025;-74
2023/09/14 11:38:26;;;;;;;11.57;8.85;;;871.30;1510.40;;;;;;5023970;28;20017;-74
2023/09/14 11:40:53;;;;;;;13.60;9.38;;;871.30;1510.40;;;;;;5017010;28;20064;-73
2023/09/14 11:43:32;;;;;;;12.35;9.23;;;871.10;1484.80;;;;;;5025496;28;20036;-73
2023/09/14 11:46:04;;;;;;;14.75;9.80;;;871.00;1484.80;;;;;;5027513;28;20030;-74
2023/09/14 11:48:35;;;;;;;14.60;8.77;;;870.90;1536.00;;;;;;5018648;28;20021;-74
2023/09/14 11:51:03;;;;;;;15.43;9.32;;;871.00;1536.00;;;;;;5024537;28;20479;-74
2023/09/14 11:53:33;;;;;;;13.25;10.02;;;870.90;1561.60;;;;;;5020078;28;20034;-73
2023/09/14 11:55:59;;;;;;;19.92;15.43;;;870.90;1561.60;;;;;;5027905;28;20060;-73
2023/09/14 11:58:25;;;;;;;11.15;9.45;;;870.90;1561.60;;;;;;5022780;28;20430;-74
2023/09/14 12:00:54;;;;;;;17.75;11.35;;;845.70;1612.80;;;;;;5022589;28;20466;-73
2023/09/14 12:03:21;;;;;;;12.32;9.00;;;845.20;1638.40;;;;;;5025416;28;20069;-74